1886 NOT_NAMED (1886091S12065)


IBTrACS version v04r00. Visit IBTrACS website for data access.
Please direct all questions to the IBTrACS Q and A forum

Storm track - Intensity - Wind Radii - Intensity Data - Source Data - All data

Summary Information

Storm ID 1886091S12065
Start Apr 1 06Z
End Apr 12 06Z
ATCF IDs
Track status Best track data.

Storm track plot

Map of storm track

Intensity plots

No Intensity information for this storm


Radial wind information

No radial wind information for this storm


Position and Intensity Table

BASIN ISO_TIME_________ NATURE LAT LON
degrees north degrees east
SI 1886-04-01 06:00:00 NR -12.20 64.50
SI 09:00:00 NR -12.27 64.19
SI 12:00:00 NR -12.33 63.87
SI 15:00:00 NR -12.40 63.56
SI 18:00:00 NR -12.46 63.26
SI 21:00:00 NR -12.52 62.96
SI 1886-04-02 00:00:00 NR -12.58 62.66
SI 03:00:00 NR -12.64 62.38
SI 06:00:00 NR -12.70 62.10
SI 09:00:00 NR -12.76 61.83
SI 12:00:00 NR -12.81 61.57
SI 15:00:00 NR -12.87 61.32
SI 18:00:00 NR -12.93 61.08
SI 21:00:00 NR -12.99 60.83
SI 1886-04-03 00:00:00 NR -13.05 60.59
SI 03:00:00 NR -13.12 60.35
SI 06:00:00 NR -13.20 60.10
SI 09:00:00 NR -13.29 59.83
SI 12:00:00 NR -13.38 59.55
SI 15:00:00 NR -13.48 59.27
SI 18:00:00 NR -13.59 58.99
SI 21:00:00 NR -13.69 58.72
SI 1886-04-04 00:00:00 NR -13.80 58.46
SI 03:00:00 NR -13.90 58.22
SI 06:00:00 NR -14.00 58.00
SI 09:00:00 NR -14.09 57.81
SI 12:00:00 NR -14.18 57.63
SI 15:00:00 NR -14.27 57.47
SI 18:00:00 NR -14.36 57.32
SI 21:00:00 NR -14.44 57.19
SI 1886-04-05 00:00:00 NR -14.53 57.06
SI 03:00:00 NR -14.61 56.93
SI 06:00:00 NR -14.70 56.80
SI 09:00:00 NR -14.78 56.66
SI 12:00:00 NR -14.86 56.52
SI 15:00:00 NR -14.94 56.39
SI 18:00:00 NR -15.02 56.25
SI 21:00:00 NR -15.11 56.11
SI 1886-04-06 00:00:00 NR -15.20 55.98
SI 03:00:00 NR -15.29 55.84
SI 06:00:00 NR -15.40 55.70
SI 09:00:00 NR -15.52 55.55
SI 12:00:00 NR -15.65 55.40
SI 15:00:00 NR -15.78 55.24
SI 18:00:00 NR -15.92 55.09
SI 21:00:00 NR -16.06 54.93
SI 1886-04-07 00:00:00 NR -16.21 54.78
SI 03:00:00 NR -16.35 54.64
SI 06:00:00 NR -16.50 54.50
SI 09:00:00 NR -16.62 54.38
SI 12:00:00 NR -16.74 54.26
SI 15:00:00 NR -16.86 54.14
SI 18:00:00 NR -16.99 54.03
SI 21:00:00 NR -17.12 53.93
SI 1886-04-08 00:00:00 NR -17.27 53.82
SI 03:00:00 NR -17.43 53.71
SI 06:00:00 NR -17.60 53.60
SI 09:00:00 NR -17.78 53.45
SI 12:00:00 NR -17.98 53.30
SI 15:00:00 NR -18.19 53.15
SI 18:00:00 NR -18.42 53.00
SI 21:00:00 NR -18.66 52.87
SI 1886-04-09 00:00:00 NR -18.92 52.76
SI 03:00:00 NR -19.20 52.66
SI 06:00:00 NR -19.50 52.60
SI 09:00:00 NR -19.83 52.56
SI 12:00:00 NR -20.17 52.54
SI 15:00:00 NR -20.54 52.55
SI 18:00:00 NR -20.91 52.58
SI 21:00:00 NR -21.29 52.65
SI 1886-04-10 00:00:00 NR -21.67 52.74
SI 03:00:00 NR -22.04 52.85
SI 06:00:00 NR -22.40 53.00
SI 09:00:00 NR -22.75 53.18
SI 12:00:00 NR -23.09 53.38
SI 15:00:00 NR -23.41 53.62
SI 18:00:00 NR -23.73 53.87
SI 21:00:00 NR -24.03 54.13
SI 1886-04-11 00:00:00 NR -24.31 54.40
SI 03:00:00 NR -24.57 54.66
SI 06:00:00 NR -24.80 54.90
SI 09:00:00 NR -25.01 55.12
SI 12:00:00 NR -25.19 55.33
SI 15:00:00 NR -25.36 55.52
SI 18:00:00 NR -25.51 55.69
SI 21:00:00 NR -25.64 55.85
SI 1886-04-12 00:00:00 NR -25.77 56.01
SI 03:00:00 NR -25.89 56.15
SI 06:00:00 NR -26.00 56.30

Source Information

Agency Information
USA
TOKYO
CMA
HKO
NEWDELHI
REUNION WMO-Best-Tracks.txt:Line=1461:xxxx886213
BOM
NADI
WELLINGTON
DS824
TD9636
TD9635
NEUMANN
MLC

All available IBTrACS Data

SEASON BASIN SUBBASIN ISO_TIME_________ NATURE LAT LON WMO AGENCY DIST2LAND LANDFALL IFLAG USA SSHS REUNION LAT REUNION LON REUNION TYPE REUNION TNUM STORM SPEED STORM DIR
Year degrees north degrees east km km 1 degrees north degrees east 1 kts degrees
1886 SI MM 1886-04-01 06:00:00 NR -12.20 64.50 reunion 1143 1114 _____O________ -1 -12.20 64.50 99 9.90 6 258
1886 SI MM 09:00:00 NR -12.27 64.19 1114 1095 _____P________ -1 -12.27 64.19 99 6 258
1886 SI MM 12:00:00 NR -12.33 63.87 1095 1067 _____P________ -1 -12.33 63.87 99 6 258
1886 SI MM 15:00:00 NR -12.40 63.56 1067 1039 _____P________ -1 -12.40 63.56 99 6 258
1886 SI MM 18:00:00 NR -12.46 63.26 1039 1021 _____P________ -1 -12.46 63.26 99 6 258
1886 SI MM 21:00:00 NR -12.52 62.96 1021 994 _____P________ -1 -12.52 62.96 99 6 258
1886 SI MM 1886-04-02 00:00:00 NR -12.58 62.66 994 977 _____P________ -1 -12.58 62.66 99 6 258
1886 SI MM 03:00:00 NR -12.64 62.38 977 951 _____P________ -1 -12.64 62.38 99 6 258
1886 SI MM 06:00:00 NR -12.70 62.10 reunion 951 926 _____O________ -1 -12.70 62.10 99 9.90 5 258
1886 SI MM 09:00:00 NR -12.76 61.83 926 916 _____P________ -1 -12.76 61.83 99 5 258
1886 SI MM 12:00:00 NR -12.81 61.57 916 892 _____P________ -1 -12.81 61.57 99 5 257
1886 SI MM 15:00:00 NR -12.87 61.32 892 883 _____P________ -1 -12.87 61.32 99 5 257
1886 SI MM 18:00:00 NR -12.93 61.08 883 860 _____P________ -1 -12.93 61.08 99 5 256
1886 SI MM 21:00:00 NR -12.99 60.83 860 852 _____P________ -1 -12.99 60.83 99 5 255
1886 SI MM 1886-04-03 00:00:00 NR -13.05 60.59 842 834 _____P________ -1 -13.05 60.59 99 5 254
1886 SI MM 03:00:00 NR -13.12 60.35 830 813 _____P________ -1 -13.12 60.35 99 5 253
1886 SI MM 06:00:00 NR -13.20 60.10 reunion 813 793 _____O________ -1 -13.20 60.10 99 9.90 5 252
1886 SI MM 09:00:00 NR -13.29 59.83 793 776 _____P________ -1 -13.29 59.83 99 6 251
1886 SI MM 12:00:00 NR -13.38 59.55 773 757 _____P________ -1 -13.38 59.55 99 6 250
1886 SI MM 15:00:00 NR -13.48 59.27 757 740 _____P________ -1 -13.48 59.27 99 6 249
1886 SI MM 18:00:00 NR -13.59 58.99 740 724 _____P________ -1 -13.59 58.99 99 6 249
1886 SI MM 21:00:00 NR -13.69 58.72 724 710 _____P________ -1 -13.69 58.72 99 6 248
1886 SI MM 1886-04-04 00:00:00 NR -13.80 58.46 710 695 _____P________ -1 -13.80 58.46 99 5 247
1886 SI MM 03:00:00 NR -13.90 58.22 695 683 _____P________ -1 -13.90 58.22 99 5 246
1886 SI MM 06:00:00 NR -14.00 58.00 reunion 683 671 _____O________ -1 -14.00 58.00 99 9.90 4 244
1886 SI MM 09:00:00 NR -14.09 57.81 671 660 _____P________ -1 -14.09 57.81 99 4 243
1886 SI MM 12:00:00 NR -14.18 57.63 660 649 _____P________ -1 -14.18 57.63 99 4 241
1886 SI MM 15:00:00 NR -14.27 57.47 649 638 _____P________ -1 -14.27 57.47 99 3 239
1886 SI MM 18:00:00 NR -14.36 57.32 638 638 _____P________ -1 -14.36 57.32 99 3 238
1886 SI MM 21:00:00 NR -14.44 57.19 638 627 _____P________ -1 -14.44 57.19 99 3 237
1886 SI MM 1886-04-05 00:00:00 NR -14.53 57.06 628 617 _____P________ -1 -14.53 57.06 99 3 236
1886 SI MM 03:00:00 NR -14.61 56.93 618 607 _____P________ -1 -14.61 56.93 99 3 235
1886 SI MM 06:00:00 NR -14.70 56.80 reunion 608 599 _____O________ -1 -14.70 56.80 99 9.90 3 238
1886 SI MM 09:00:00 NR -14.78 56.66 599 591 _____P________ -1 -14.78 56.66 99 3 239
1886 SI MM 12:00:00 NR -14.86 56.52 591 591 _____P________ -1 -14.86 56.52 99 3 239
1886 SI MM 15:00:00 NR -14.94 56.39 593 582 _____P________ -1 -14.94 56.39 99 3 239
1886 SI MM 18:00:00 NR -15.02 56.25 587 576 _____P________ -1 -15.02 56.25 99 3 238
1886 SI MM 21:00:00 NR -15.11 56.11 578 570 _____P________ -1 -15.11 56.11 99 3 236
1886 SI MM 1886-04-06 00:00:00 NR -15.20 55.98 570 563 _____P________ -1 -15.20 55.98 99 3 235
1886 SI MM 03:00:00 NR -15.29 55.84 566 555 _____P________ -1 -15.29 55.84 99 3 233
1886 SI MM 06:00:00 NR -15.40 55.70 reunion 557 546 _____O________ -1 -15.40 55.70 99 9.90 4 231
1886 SI MM 09:00:00 NR -15.52 55.55 536 525 _____P________ -1 -15.52 55.55 99 4 230
1886 SI MM 12:00:00 NR -15.65 55.40 525 505 _____P________ -1 -15.65 55.40 99 4 229
1886 SI MM 15:00:00 NR -15.78 55.24 505 495 _____P________ -1 -15.78 55.24 99 4 228
1886 SI MM 18:00:00 NR -15.92 55.09 495 475 _____P________ -1 -15.92 55.09 99 4 226
1886 SI MM 21:00:00 NR -16.06 54.93 477 466 _____P________ -1 -16.06 54.93 99 4 225
1886 SI MM 1886-04-07 00:00:00 NR -16.21 54.78 468 450 _____P________ -1 -16.21 54.78 99 4 224
1886 SI MM 03:00:00 NR -16.35 54.64 452 445 _____P________ -1 -16.35 54.64 99 4 223
1886 SI MM 06:00:00 NR -16.50 54.50 reunion 445 434 _____O________ -1 -16.50 54.50 99 9.90 4 224
1886 SI MM 09:00:00 NR -16.62 54.38 438 427 _____P________ -1 -16.62 54.38 99 3 224
1886 SI MM 12:00:00 NR -16.74 54.26 431 419 _____P________ -1 -16.74 54.26 99 3 222
1886 SI MM 15:00:00 NR -16.86 54.14 419 414 _____P________ -1 -16.86 54.14 99 3 221
1886 SI MM 18:00:00 NR -16.99 54.03 414 409 _____P________ -1 -16.99 54.03 99 3 219
1886 SI MM 21:00:00 NR -17.12 53.93 409 404 _____P________ -1 -17.12 53.93 99 3 216
1886 SI MM 1886-04-08 00:00:00 NR -17.27 53.82 409 404 _____P________ -1 -17.27 53.82 99 4 214
1886 SI MM 03:00:00 NR -17.43 53.71 404 399 _____P________ -1 -17.43 53.71 99 4 212
1886 SI MM 06:00:00 NR -17.60 53.60 reunion 403 399 _____O________ -1 -17.60 53.60 99 9.90 4 214
1886 SI MM 09:00:00 NR -17.78 53.45 404 391 _____P________ -1 -17.78 53.45 99 5 217
1886 SI MM 12:00:00 NR -17.98 53.30 394 382 _____P________ -1 -17.98 53.30 99 5 215
1886 SI MM 15:00:00 NR -18.19 53.15 383 377 _____P________ -1 -18.19 53.15 99 5 213
1886 SI MM 18:00:00 NR -18.42 53.00 377 367 _____P________ -1 -18.42 53.00 99 5 209
1886 SI MM 21:00:00 NR -18.66 52.87 359 351 _____P________ -1 -18.66 52.87 99 6 205
1886 SI MM 1886-04-09 00:00:00 NR -18.92 52.76 351 336 _____P________ -1 -18.92 52.76 99 6 200
1886 SI MM 03:00:00 NR -19.20 52.66 336 324 _____P________ -1 -19.20 52.66 99 6 194
1886 SI MM 06:00:00 NR -19.50 52.60 reunion 324 307 _____O________ -1 -19.50 52.60 99 9.90 6 189
1886 SI MM 09:00:00 NR -19.83 52.56 307 298 _____P________ -1 -19.83 52.56 99 7 185
1886 SI MM 12:00:00 NR -20.17 52.54 298 288 _____P________ -1 -20.17 52.54 99 7 0
1886 SI MM 15:00:00 NR -20.54 52.55 288 270 _____P________ -1 -20.54 52.55 99 7 176
1886 SI MM 18:00:00 NR -20.91 52.58 270 269 _____P________ -1 -20.91 52.58 99 8 174
1886 SI MM 21:00:00 NR -21.29 52.65 270 260 _____P________ -1 -21.29 52.65 99 8 169
1886 SI MM 1886-04-10 00:00:00 NR -21.67 52.74 267 257 _____P________ -1 -21.67 52.74 99 8 166
1886 SI MM 03:00:00 NR -22.04 52.85 258 258 _____P________ -1 -22.04 52.85 99 8 162
1886 SI MM 06:00:00 NR -22.40 53.00 reunion 267 263 _____O________ -1 -22.40 53.00 99 9.90 8 157
1886 SI MM 09:00:00 NR -22.75 53.18 267 267 _____P________ -1 -22.75 53.18 99 8 153
1886 SI MM 12:00:00 NR -23.09 53.38 280 280 _____P________ -1 -23.09 53.38 99 8 149
1886 SI MM 15:00:00 NR -23.41 53.62 292 292 _____P________ -1 -23.41 53.62 99 8 145
1886 SI MM 18:00:00 NR -23.73 53.87 304 304 _____P________ -1 -23.73 53.87 99 8 142
1886 SI MM 21:00:00 NR -24.03 54.13 325 325 _____P________ -1 -24.03 54.13 99 8 140
1886 SI MM 1886-04-11 00:00:00 NR -24.31 54.40 346 346 _____P________ -1 -24.31 54.40 99 7 138
1886 SI MM 03:00:00 NR -24.57 54.66 369 369 _____P________ -1 -24.57 54.66 99 7 137
1886 SI MM 06:00:00 NR -24.80 54.90 reunion 386 384 _____O________ -1 -24.80 54.90 99 9.90 6 136
1886 SI MM 09:00:00 NR -25.01 55.12 405 404 _____P________ -1 -25.01 55.12 99 6 135
1886 SI MM 12:00:00 NR -25.19 55.33 425 425 _____P________ -1 -25.19 55.33 99 5 135
1886 SI MM 15:00:00 NR -25.36 55.52 447 447 _____P________ -1 -25.36 55.52 99 5 134
1886 SI MM 18:00:00 NR -25.51 55.69 458 458 _____P________ -1 -25.51 55.69 99 4 133
1886 SI MM 21:00:00 NR -25.64 55.85 470 470 _____P________ -1 -25.64 55.85 99 4 132
1886 SI MM 1886-04-12 00:00:00 NR -25.77 56.01 493 493 _____P________ -1 -25.77 56.01 99 4 132
1886 SI MM 03:00:00 NR -25.89 56.15 506 506 _____P________ -1 -25.89 56.15 99 4 131
1886 SI MM 06:00:00 NR -26.00 56.30 reunion 519 _____O________ -1 -26.00 56.30 99 9.90 3 132